METAR Data
IDs: Format: Raw Decoded Include TAF

Data at: 0821 UTC 13 Aug 2022

EDDS 130750Z AUTO 04005KT 360V090 CAVOK 20/10 Q1017 NOSIG